createdAt,value
2023-02-04T14:09:03.020Z,69.26
2023-02-04T14:15:13.479Z,69.26
2023-02-04T14:17:46.302Z,69.01
2023-02-04T14:20:18.146Z,69.09
2023-02-04T14:22:51.461Z,68.88
2023-02-04T14:25:22.351Z,69.08
2023-02-04T14:27:52.979Z,68.97
2023-02-04T14:30:28.049Z,69.03
2023-02-04T14:32:59.429Z,69.15
2023-02-04T14:35:33.277Z,69.02
2023-02-04T14:38:04.005Z,69.06
2023-02-04T14:40:37.672Z,69.20
2023-02-04T14:43:11.608Z,69.12
2023-02-04T14:45:46.855Z,69.12
2023-02-04T14:48:21.444Z,69.36
2023-02-04T14:50:52.469Z,69.37
2023-02-04T14:53:23.109Z,69.26
2023-02-04T14:55:56.153Z,69.32
2023-02-04T14:58:27.933Z,69.25
2023-02-04T15:01:01.556Z,69.27
2023-02-04T15:03:36.362Z,69.41
2023-02-04T15:06:07.552Z,69.20
2023-02-04T15:08:46.564Z,69.36
2023-02-04T15:11:17.064Z,69.40
2023-02-04T15:13:47.904Z,69.29
2023-02-04T15:16:20.940Z,69.54
2023-02-04T15:18:51.604Z,69.50
2023-02-04T15:21:22.078Z,69.45
2023-02-04T15:23:54.085Z,69.43
2023-02-04T15:26:27.109Z,69.40
2023-02-04T15:28:57.777Z,69.50
2023-02-04T15:31:32.486Z,69.48
2023-02-04T15:34:05.741Z,69.33
2023-02-04T15:36:37.251Z,69.30
2023-02-04T15:39:08.142Z,69.51
2023-02-04T15:41:38.637Z,69.40
2023-02-04T15:44:09.534Z,69.40
2023-02-04T15:46:43.475Z,69.46
2023-02-04T15:53:47.958Z,69.46
2023-02-04T15:56:23.320Z,69.49
2023-02-04T15:58:55.258Z,69.66
2023-02-04T16:01:28.704Z,69.67
2023-02-04T16:04:01.210Z,69.70
2023-02-04T16:06:35.000Z,69.70
2023-02-04T16:09:05.726Z,69.84
2023-02-04T16:11:38.142Z,69.81
2023-02-04T16:14:10.820Z,69.70
2023-02-04T16:16:41.304Z,69.81
2023-02-04T16:19:12.319Z,69.90
2023-02-04T16:21:46.435Z,69.81
2023-02-04T16:24:19.028Z,69.78
2023-02-04T16:26:51.876Z,69.85
2023-02-04T16:29:23.363Z,69.81
2023-02-04T16:31:58.169Z,69.92
2023-02-04T16:34:31.687Z,70.05
2023-02-04T16:37:03.629Z,70.00
2023-02-04T16:39:34.199Z,70.01
2023-02-04T16:42:09.267Z,69.96
2023-02-04T16:44:41.238Z,70.02
2023-02-04T16:47:14.608Z,69.88
2023-02-04T16:49:46.764Z,69.73
2023-02-04T16:52:17.633Z,69.62
2023-02-04T16:54:48.382Z,69.70
2023-02-04T16:57:19.768Z,69.76
2023-02-04T16:59:51.064Z,69.90
2023-02-04T17:02:23.176Z,69.98
2023-02-04T17:04:56.640Z,69.92
2023-02-04T17:12:00.168Z,69.98
2023-02-04T17:14:30.710Z,70.05
2023-02-04T17:17:05.314Z,70.04
2023-02-04T17:19:37.792Z,69.99
2023-02-04T17:22:09.955Z,69.94
2023-02-04T17:24:44.011Z,70.01
2023-02-04T17:27:15.117Z,70.06
2023-02-04T17:29:46.074Z,69.84
2023-02-04T17:32:20.215Z,69.89
2023-02-04T17:34:51.180Z,69.83
2023-02-04T17:37:22.176Z,69.92
2023-02-04T17:39:53.462Z,69.91
2023-02-04T17:42:28.299Z,69.91
2023-02-04T17:45:00.041Z,70.17
2023-02-04T17:47:36.760Z,70.32
2023-02-04T17:50:12.152Z,70.31
2023-02-04T17:52:43.231Z,70.33
2023-02-04T17:55:31.957Z,70.32
2023-02-04T17:58:16.476Z,70.26
2023-02-04T18:00:49.936Z,70.06
2023-02-04T18:03:26.255Z,70.16
2023-02-04T18:06:00.382Z,70.21
2023-02-04T18:08:42.240Z,70.26
2023-02-04T18:11:28.852Z,70.22
2023-02-04T18:14:09.952Z,70.25
2023-02-04T18:16:42.204Z,70.29
2023-02-04T18:19:28.342Z,70.13
2023-02-04T18:22:01.233Z,70.23
2023-02-04T18:29:23.904Z,70.51
2023-02-04T18:31:59.867Z,70.43
2023-02-04T18:34:44.831Z,70.41
2023-02-04T18:37:37.953Z,70.45
2023-02-04T18:40:12.889Z,70.39
2023-02-04T18:42:48.424Z,70.49
2023-02-04T18:45:37.558Z,70.39
2023-02-04T18:48:22.474Z,70.36
2023-02-04T18:50:57.684Z,70.25
2023-02-04T18:53:30.901Z,70.42
2023-02-04T18:56:05.873Z,70.26
2023-02-04T18:58:44.762Z,70.24
2023-02-04T19:01:30.256Z,70.29
2023-02-04T19:04:06.458Z,70.15
2023-02-04T19:06:52.669Z,70.20
2023-02-04T19:09:33.183Z,70.28
2023-02-04T19:12:23.034Z,70.33
2023-02-04T19:14:57.009Z,70.41
2023-02-04T19:17:31.664Z,70.31
2023-02-04T19:20:11.928Z,70.43
2023-02-04T19:22:50.359Z,70.38
2023-02-04T19:25:33.951Z,70.36
2023-02-04T19:28:37.679Z,70.41
2023-02-04T19:31:11.541Z,70.39
2023-02-04T19:33:47.249Z,70.33
2023-02-04T19:36:42.341Z,70.34
2023-02-04T19:39:39.009Z,70.25
2023-02-04T19:42:35.817Z,70.21
2023-02-04T19:45:22.894Z,70.21
2023-02-04T19:47:56.720Z,70.15
2023-02-04T19:50:34.811Z,70.09
2023-02-04T19:53:20.906Z,70.01
2023-02-04T19:55:55.906Z,70.05
2023-02-04T19:58:44.117Z,70.16
2023-02-04T20:01:24.963Z,70.19
2023-02-04T20:03:57.214Z,70.22
2023-02-04T20:06:39.277Z,70.19
2023-02-04T20:09:30.656Z,70.18
2023-02-04T20:12:07.537Z,70.12
2023-02-04T20:14:45.019Z,70.12
2023-02-04T20:17:47.609Z,69.95
2023-02-04T20:20:32.421Z,70.12
2023-02-04T20:23:18.857Z,70.13
2023-02-04T20:25:51.366Z,70.07
2023-02-04T20:28:30.706Z,70.16
2023-02-04T20:31:04.257Z,69.98
2023-02-04T20:33:51.013Z,70.09
2023-02-04T20:36:38.965Z,69.99
2023-02-04T20:39:12.225Z,69.90
2023-02-04T20:41:47.041Z,69.85
2023-02-04T20:44:23.506Z,69.79
2023-02-04T20:47:04.815Z,70.98
2023-02-04T20:49:43.435Z,71.41
2023-02-04T20:52:53.550Z,71.21
2023-02-04T20:55:30.774Z,71.07
2023-02-04T20:58:16.799Z,70.67
2023-02-04T21:00:54.977Z,70.42
2023-02-04T21:03:33.047Z,70.27
2023-02-04T21:06:29.468Z,69.99
2023-02-04T21:09:10.152Z,69.79
2023-02-04T21:11:46.968Z,69.71
2023-02-04T21:14:20.419Z,69.72
2023-02-04T21:16:59.812Z,69.64
2023-02-04T21:19:37.975Z,69.62
2023-02-04T21:22:15.335Z,69.65
2023-02-04T21:24:50.406Z,69.75
2023-02-04T21:27:25.643Z,69.55
2023-02-04T21:30:01.267Z,69.36
2023-02-04T21:32:34.949Z,69.49
2023-02-04T21:35:09.268Z,69.37
2023-02-04T21:37:49.337Z,69.26
2023-02-04T21:40:25.018Z,69.31
2023-02-04T21:43:04.251Z,69.18
2023-02-04T21:45:41.418Z,69.13
2023-02-04T21:48:15.781Z,69.12
2023-02-04T21:50:50.150Z,69.10
2023-02-04T21:53:26.700Z,68.99
2023-02-04T21:56:00.811Z,68.88
2023-02-04T21:58:34.952Z,68.94
2023-02-04T22:01:10.842Z,68.97
2023-02-04T22:03:44.996Z,68.83
2023-02-04T22:06:20.757Z,68.75
2023-02-04T22:17:20.598Z,68.75
2023-02-04T22:19:51.460Z,68.80
2023-02-04T22:22:22.309Z,68.70
2023-02-04T22:24:55.104Z,68.64
2023-02-04T22:27:28.915Z,68.63
2023-02-04T22:30:03.632Z,68.53
2023-02-04T22:32:37.880Z,68.52
2023-02-04T22:35:10.483Z,68.52
2023-02-04T22:37:42.461Z,68.44
2023-02-04T22:40:14.856Z,68.41
2023-02-04T22:42:45.354Z,68.43
2023-02-04T22:45:15.765Z,68.43
2023-02-04T22:47:46.406Z,68.38
2023-02-04T22:50:18.441Z,68.28
2023-02-04T22:52:48.836Z,68.32
2023-02-04T22:55:22.618Z,68.33
2023-02-04T22:57:53.012Z,68.33
2023-02-04T23:00:23.833Z,68.37
2023-02-04T23:02:56.230Z,68.25
2023-02-04T23:05:27.305Z,68.30
2023-02-04T23:07:59.220Z,68.19
2023-02-04T23:10:32.130Z,68.30
2023-02-04T23:13:02.752Z,68.35
2023-02-04T23:15:34.969Z,68.27
2023-02-04T23:18:06.717Z,68.14
2023-02-04T23:20:38.164Z,68.34
2023-02-04T23:23:17.856Z,68.33
2023-02-04T23:25:51.290Z,68.15
2023-02-04T23:28:23.018Z,68.12
2023-02-04T23:30:54.433Z,68.12
2023-02-04T23:33:25.287Z,68.12
2023-02-04T23:35:57.938Z,68.04
2023-02-04T23:38:28.674Z,68.07
2023-02-04T23:41:00.693Z,67.73
2023-02-04T23:43:31.289Z,67.68
2023-02-04T23:46:02.268Z,67.69
2023-02-04T23:48:33.046Z,67.74
2023-02-04T23:51:03.500Z,67.58
2023-02-04T23:53:33.852Z,67.56
2023-02-04T23:56:05.632Z,67.40
2023-02-04T23:58:36.282Z,67.49
